Pagina principală
METAR-TAF:

METAR-TAF

Aeroporturi :

Houma-Terrebonne Airport

Houma, Louisiana, Statele Unite ale Americii

Latitudine: 29-34N, longitudine: 090-40W, elevație: 3 m

Observații meteo curente

Raportul a fost făcut în urmă cu 1 oră și 17 de minute, la 21:47 UTC
Vânt 7 kt de la Sud-est
Temperatură 31°C
Umiditate 59%
Presiune 1016 hPa
Vizibilitate: 11.3 km
Cer senin

METAR: KHUM 222147Z 13007KT 7SM CLR 31/22 A3000

Ora: 18:04 (23:04 UTC)

Prognoză

Raportul a fost făcut în urmă cu 5 ore și 40 de minute, la 17:24 UTC
Prognoză valabilă de la 22 ora 18 UTC la 23 ora 18 UTC
Vânt 7 kt de la Est/Sud-est
Vizibilitate: 10 km
Cer senin
De la 23 ora 0200 UTC
Vânt kt de la Nord
Vizibilitate: 10 km
Cer senin
De la 23 ora 1600 UTC
Vânt 6 kt de la Sud/Sud-est
Vizibilitate: 10 km
Nori împrăștiați la o înălțime de 3500 picior

TAF: KHUM 221724Z 2218/2318 12007KT P6SM SKC FM230200 00000KT P6SM SKC FM231600 15006KT P6SM SCT035

Observații și prognoze meteo pentru peste 4.000 de aeroporturi (rapoarte METAR și TAF).

Stațiile disponibile sunt reprezentate pe hartă prin puncte galbene și roșii.

Țineți indicatorul mouse-ului pe punctul dorit pentru a vedea denumirea stației.

Apoi, faceți clic pentru a vedea observațiile și prognozele meteorologice.

Pentru a schimba harta: Pentru mărire, faceți clic pe butoanele verzi cu cruce neagră; pentru micșorare, pe butonul verde cu o liniuță; pentru hărți învecinate, pe săgețile verzi.


METAR-TAF: